Aérodrome :
LOGIN :

S'inscrire | Disclaimer

   EN    FR    IT 

 










Légende :    VFR   VFR Marginal   IFR   IFR Intensif   IFR Très Intensif
Visi : 
Plafond : 
>= 8 km
>= 3000ft
5 à 8 km
1000 à 3000 ft
1500m à 5 km
500 à 1000 ft
800 à 1500m
200 à 500 ft
< 800m
< 200 ft
Symboles :   Orages  Brouillard  Fortes neiges  Fortes précipitations  Vent > 20 kt
SIGMETs :   Divers  Orages  Givrage  Turbulence  Onde Orograph.  Cendres Volcan.






- Altitude de l'aérodrome : 72 ft
- Code IATA : UDE


EHVK - Volkel Airbase

DERNIER METAR :
  • 301910Z AUTO 28005KT 230V360 6000 +SHRA FEW007 BKN015CB OVC052 14/13 Q1013 WHT

METARs EXPIRÉS :
  • 301855Z AUTO 28007KT 250V330 9999 SHRA FEW007 SCT015CB BKN046 14/13 Q1013 WHT
  • 301834Z AUTO 27009KT 230V330 9999 -SHRA FEW005 BKN007 BKN008 FEW015CB 14/13 Q1012 GRN
  • 301825Z AUTO 27008KT 240V330 9999 DZ SCT006 BKN008 BKN055 14/13 Q1012 YLO
  • 301755Z AUTO 29009KT 240V350 9999 -DZ FEW015CB SCT078 BKN096 14/13 Q1012 REDZ BLU
  • 301744Z AUTO 26013KT 230V310 9999 DZ TS FEW008 FEW015CB SCT025 OVC055 14/12 Q1013 BLU
  • 301733Z AUTO 28012KT 240V340 9999 -DZ TS FEW009 SCT010 FEW015CB BKN058 14/13 Q1012 GRN
  • 301725Z AUTO 27014KT 240V320 9999 -TSRA -DZ FEW009 FEW015CB SCT067 OVC087 15/13 Q1012 BLU
  • 301708Z AUTO 27010KT 240V320 9999 -TSRA SCT015CB BKN046 BKN052 15/14 Q1012 WHT
  • 301655Z AUTO 25020G33KT 220V290 5000 +TSRA SCT015CB BKN017 BKN020 OVC024 16/14 Q1012 WHT
  • 301625Z AUTO 29014KT 250V330 9999 OVC035 20/15 Q1010 BLU

TAF COR TAF EHVK
Valide du 30 à 17h jusqu'au 01 à 05h UTC


301659Z 3017/0105 24005KT 9999 BKN020
TEMPO 3017/3021 VRB10G20KT 4500 SHRA RA FEW008 BKN015 OVC020 FEW050CB
TEMPO 3017/3020 2500 +SHRA TSRA BKN006 OVC012 SCT040CB
PROB40
TEMPO 3017/3020 VRB15G30KT 2000 TSRAGR BKN005 OVC010 BKN040CB
PROB30
TEMPO 0100/0105 SCT006



MET'MAP, la Météo Aéronautique d'un coup d'oeil ! - Copyright ORBIFLY Décembre 2007 - Disclaimer

ORBIFLY MET'MAP TEAM :

Programmation & Développement : Alexandra Zaïnal
Sur une idée originale de : Baudouin d'Aumeries
Soutien technique & logistique : Manuel Goepfert
Assistance : Marc-Olivier Méhu




SOURCES & CREDITS :

   NOAA